createdAt,value
2019-04-30T00:04:40.403Z,45.80
2019-04-30T00:09:44.952Z,42.53
2019-04-30T00:14:49.748Z,43.97
2019-04-30T00:19:59.819Z,44.90
2019-04-30T00:25:05.262Z,43.60
2019-04-30T00:30:10.564Z,45.27
2019-04-30T00:35:19.328Z,45.00
2019-04-30T00:40:26.742Z,46.07
2019-04-30T00:45:28.781Z,42.43
2019-04-30T00:50:37.136Z,43.70
2019-04-30T00:55:44.384Z,41.60
2019-04-30T01:01:04.125Z,45.57
2019-04-30T01:06:05.485Z,41.67
2019-04-30T01:11:09.662Z,40.87
2019-04-30T01:16:13.385Z,43.70
2019-04-30T01:21:18.509Z,47.57
2019-04-30T01:26:26.828Z,44.13
2019-04-30T01:31:32.970Z,45.10
2019-04-30T01:36:34.904Z,42.87
2019-04-30T01:41:40.235Z,48.90
2019-04-30T01:46:48.205Z,49.17
2019-04-30T01:51:52.815Z,45.10
2019-04-30T01:57:13.901Z,44.60
2019-04-30T02:02:18.626Z,45.10
2019-04-30T02:07:23.690Z,43.87
2019-04-30T02:12:29.547Z,42.87
2019-04-30T02:17:33.574Z,45.83
2019-04-30T02:22:39.001Z,39.50
2019-04-30T02:27:44.385Z,45.77
2019-04-30T02:32:52.501Z,43.70
2019-04-30T02:38:15.498Z,46.63
2019-04-30T02:43:23.179Z,43.80
2019-04-30T02:48:30.864Z,46.00
2019-04-30T02:54:11.535Z,45.60
2019-04-30T02:59:16.546Z,45.37
2019-04-30T03:04:21.765Z,49.57
2019-04-30T03:09:26.752Z,49.20
2019-04-30T03:14:32.063Z,44.37
2019-04-30T03:19:50.382Z,46.43
2019-04-30T03:24:55.381Z,47.17
2019-04-30T03:30:00.378Z,46.43
2019-04-30T03:35:05.901Z,46.83
2019-04-30T03:40:13.166Z,44.20
2019-04-30T03:45:20.488Z,47.60
2019-04-30T03:50:25.886Z,45.40
2019-04-30T03:55:31.914Z,48.87
2019-04-30T04:01:02.795Z,44.77
2019-04-30T04:06:32.042Z,48.50
2019-04-30T04:11:39.708Z,48.77
2019-04-30T04:16:43.996Z,46.43
2019-04-30T04:21:50.711Z,49.47
2019-04-30T04:26:53.987Z,47.30
2019-04-30T04:32:00.741Z,50.57
2019-04-30T04:37:04.492Z,55.10
2019-04-30T04:42:10.118Z,51.77
2019-04-30T04:47:19.460Z,52.00
2019-04-30T04:52:24.482Z,47.13
2019-04-30T04:57:30.497Z,45.53
2019-04-30T05:03:09.511Z,45.43
2019-04-30T05:08:15.286Z,47.30
2019-04-30T05:13:20.438Z,46.33
2019-04-30T05:18:25.520Z,45.57
2019-04-30T05:23:30.683Z,53.60
2019-04-30T05:28:36.386Z,45.10
2019-04-30T05:33:42.467Z,48.03
2019-04-30T05:38:48.785Z,46.43
2019-04-30T05:43:53.090Z,45.30
2019-04-30T05:48:59.360Z,42.80
2019-04-30T05:54:04.672Z,42.97
2019-04-30T05:59:09.657Z,48.57
2019-04-30T06:04:15.960Z,41.73
2019-04-30T06:09:42.206Z,42.27
2019-04-30T06:15:11.802Z,45.73
2019-04-30T06:20:20.425Z,38.63
2019-04-30T06:25:31.126Z,39.40
2019-04-30T06:30:32.109Z,38.87
2019-04-30T06:35:39.173Z,39.10
2019-04-30T06:40:44.598Z,40.97
2019-04-30T06:45:51.196Z,37.50
2019-04-30T06:50:56.518Z,37.53
2019-04-30T06:56:01.584Z,38.17
2019-04-30T07:01:06.825Z,38.17
2019-04-30T07:06:12.390Z,38.17
2019-04-30T07:11:31.320Z,39.27
2019-04-30T07:16:35.500Z,36.63
2019-04-30T07:21:42.700Z,33.20
2019-04-30T07:26:49.001Z,36.60
2019-04-30T07:31:53.495Z,35.33
2019-04-30T07:37:13.295Z,34.10
2019-04-30T07:42:04.331Z,29.50
2019-04-30T07:47:09.654Z,27.50
2019-04-30T07:52:14.850Z,25.07
2019-04-30T07:57:19.572Z,29.83
2019-04-30T08:02:25.703Z,22.10
2019-04-30T08:07:31.251Z,21.70
2019-04-30T08:12:40.666Z,25.37
2019-04-30T08:17:44.582Z,21.13
2019-04-30T08:22:49.572Z,30.03
2019-04-30T08:27:55.756Z,23.83
2019-04-30T08:33:00.640Z,20.60
2019-04-30T08:38:06.238Z,19.17
2019-04-30T08:43:12.648Z,20.63
2019-04-30T08:48:19.006Z,20.43
2019-04-30T08:53:29.364Z,19.23
2019-04-30T08:58:30.786Z,22.37
2019-04-30T09:03:36.806Z,20.60
2019-04-30T09:08:43.506Z,17.63
2019-04-30T09:13:48.872Z,18.50
2019-04-30T09:18:54.237Z,16.33
2019-04-30T09:23:59.634Z,17.33
2019-04-30T09:29:05.807Z,17.57
2019-04-30T09:34:16.960Z,19.17
2019-04-30T09:39:19.933Z,17.60
2019-04-30T09:44:25.619Z,18.63
2019-04-30T09:49:30.844Z,20.23
2019-04-30T09:54:36.594Z,15.63
2019-04-30T09:59:41.801Z,18.93
2019-04-30T10:04:47.671Z,17.13
2019-04-30T10:09:53.305Z,13.50
2019-04-30T10:14:59.251Z,20.73
2019-04-30T10:20:05.684Z,18.40
2019-04-30T10:25:29.240Z,15.03
2019-04-30T10:30:38.330Z,16.90
2019-04-30T10:35:43.749Z,15.90
2019-04-30T10:40:48.934Z,18.70
2019-04-30T10:45:55.706Z,16.00
2019-04-30T10:51:01.734Z,17.20
2019-04-30T10:56:07.188Z,15.10
2019-04-30T11:01:12.689Z,13.47
2019-04-30T11:06:19.188Z,12.20
2019-04-30T11:11:23.921Z,16.87
2019-04-30T11:16:29.854Z,16.10
2019-04-30T11:21:34.385Z,16.50
2019-04-30T11:26:40.695Z,13.20
2019-04-30T11:31:56.673Z,13.77
2019-04-30T11:37:03.136Z,13.30
2019-04-30T11:42:08.846Z,17.13
2019-04-30T11:47:34.656Z,11.07
2019-04-30T11:52:40.031Z,13.67
2019-04-30T12:16:53.043Z,11.40
2019-04-30T12:21:57.551Z,15.77
2019-04-30T12:27:01.945Z,11.03
2019-04-30T12:32:06.320Z,10.97
2019-04-30T12:37:10.740Z,12.90
2019-04-30T12:42:14.988Z,19.97
2019-04-30T12:47:21.927Z,17.80
2019-04-30T12:52:43.724Z,12.00
2019-04-30T12:57:58.825Z,8.80
2019-04-30T13:03:01.242Z,10.73
2019-04-30T13:08:09.122Z,15.83
2019-04-30T13:13:14.157Z,10.60
2019-04-30T13:18:19.866Z,10.27
2019-04-30T13:23:25.283Z,8.77
2019-04-30T13:28:36.762Z,6.47
2019-04-30T13:33:53.504Z,7.60
2019-04-30T13:39:08.971Z,9.03
2019-04-30T13:44:19.501Z,8.63
2019-04-30T13:49:25.064Z,8.63
2019-04-30T13:54:30.233Z,8.73
2019-04-30T13:59:35.581Z,10.47
2019-04-30T14:05:03.280Z,8.47
2019-04-30T14:10:19.808Z,6.07
2019-04-30T14:15:24.930Z,6.10
2019-04-30T14:20:28.881Z,7.23
2019-04-30T14:25:33.428Z,6.53
2019-04-30T14:30:39.330Z,6.13
2019-04-30T14:35:45.311Z,7.67
2019-04-30T14:40:51.233Z,8.17
2019-04-30T14:46:10.717Z,7.00
2019-04-30T14:51:15.293Z,10.10
2019-04-30T14:56:25.208Z,7.00
2019-04-30T15:01:45.091Z,6.60
2019-04-30T15:06:49.822Z,12.10
2019-04-30T15:11:55.041Z,8.17
2019-04-30T15:17:00.426Z,7.13
2019-04-30T15:22:06.155Z,7.40
2019-04-30T15:27:12.144Z,7.57
2019-04-30T15:32:18.622Z,6.83
2019-04-30T15:37:24.912Z,9.57
2019-04-30T15:42:30.630Z,6.70
2019-04-30T15:47:38.667Z,5.20
2019-04-30T15:52:45.195Z,7.47
2019-04-30T15:58:01.722Z,7.07
2019-04-30T16:03:14.592Z,11.47
2019-04-30T16:08:39.829Z,6.57
2019-04-30T16:14:22.827Z,7.63
2019-04-30T16:19:28.811Z,10.50
2019-04-30T16:24:34.916Z,11.67
2019-04-30T16:29:40.794Z,8.67
2019-04-30T16:34:46.736Z,8.87
2019-04-30T16:39:52.917Z,8.37
2019-04-30T16:45:00.518Z,9.77
2019-04-30T16:50:06.291Z,9.00
2019-04-30T16:55:11.757Z,12.37
2019-04-30T17:00:20.018Z,10.63
2019-04-30T17:05:50.493Z,7.27
2019-04-30T17:11:08.831Z,19.27
2019-04-30T17:16:19.474Z,22.00
2019-04-30T17:21:22.918Z,13.77
2019-04-30T17:26:27.388Z,7.17
2019-04-30T17:31:31.163Z,9.73
2019-04-30T17:36:36.018Z,14.00
2019-04-30T17:41:40.283Z,17.00
2019-04-30T17:46:45.269Z,9.50
2019-04-30T17:51:50.139Z,14.47
2019-04-30T17:56:54.835Z,11.27
2019-04-30T18:02:01.990Z,12.93
2019-04-30T18:07:06.495Z,14.70
2019-04-30T18:12:11.223Z,9.37
2019-04-30T18:17:15.757Z,11.83
2019-04-30T18:22:40.117Z,14.43
2019-04-30T18:27:55.519Z,12.97
2019-04-30T18:33:01.303Z,9.33
2019-04-30T18:38:06.759Z,10.07
2019-04-30T18:43:12.691Z,11.57
2019-04-30T18:48:19.500Z,9.90
2019-04-30T18:53:28.599Z,10.57
2019-04-30T18:58:39.846Z,10.80
2019-04-30T19:03:41.820Z,10.80
2019-04-30T19:09:06.057Z,10.57
2019-04-30T19:14:39.439Z,12.57
2019-04-30T19:19:56.081Z,10.87
2019-04-30T19:25:04.156Z,11.27
2019-04-30T19:30:10.123Z,12.20
2019-04-30T19:35:15.493Z,11.10
2019-04-30T19:40:20.725Z,11.53
2019-04-30T19:45:25.723Z,12.80
2019-04-30T19:50:31.033Z,14.03
2019-04-30T19:55:36.362Z,13.07
2019-04-30T20:00:40.019Z,18.70
2019-04-30T20:05:43.837Z,14.87
2019-04-30T20:10:49.489Z,14.20
2019-04-30T20:15:52.932Z,20.43
2019-04-30T20:21:00.942Z,14.80
2019-04-30T20:26:05.138Z,14.83
2019-04-30T20:31:11.482Z,17.13
2019-04-30T20:36:15.215Z,18.23
2019-04-30T20:41:19.808Z,16.00
2019-04-30T20:46:32.624Z,17.97
2019-04-30T20:51:30.694Z,17.00
2019-04-30T20:56:35.656Z,17.07
2019-04-30T21:01:40.322Z,18.13
2019-04-30T21:06:44.613Z,19.73
2019-04-30T21:11:49.034Z,19.80
2019-04-30T21:16:54.635Z,15.30
2019-04-30T21:21:59.622Z,14.90
2019-04-30T21:27:04.221Z,16.63
2019-04-30T21:32:30.623Z,13.67
2019-04-30T21:37:35.825Z,17.60
2019-04-30T21:42:41.070Z,16.60
2019-04-30T21:47:56.146Z,16.20
2019-04-30T21:52:53.736Z,16.57
2019-04-30T21:57:59.759Z,23.10
2019-04-30T22:03:07.143Z,16.40
2019-04-30T22:08:12.214Z,16.13
2019-04-30T22:13:18.499Z,15.53
2019-04-30T22:18:23.961Z,18.13
2019-04-30T22:23:28.887Z,20.30
2019-04-30T22:28:34.779Z,16.60
2019-04-30T22:33:40.029Z,17.40
2019-04-30T22:39:03.343Z,16.70
2019-04-30T22:44:10.267Z,17.53
2019-04-30T22:49:15.231Z,17.20
2019-04-30T22:54:20.161Z,17.80
2019-04-30T22:59:24.994Z,17.37
2019-04-30T23:04:42.244Z,17.40
2019-04-30T23:09:47.370Z,17.87
2019-04-30T23:14:52.575Z,18.13
2019-04-30T23:19:57.485Z,15.67
2019-04-30T23:25:02.589Z,19.13
2019-04-30T23:30:08.803Z,16.80
2019-04-30T23:35:14.242Z,15.50
2019-04-30T23:40:28.783Z,20.97
2019-04-30T23:45:33.885Z,19.37
2019-04-30T23:50:38.944Z,18.87
2019-04-30T23:55:43.751Z,21.40
